createdAt,value
2022-12-19T00:01:34.915Z,18.85
2022-12-19T00:04:07.840Z,17.73
2022-12-19T00:06:36.068Z,15.85
2022-12-19T00:09:02.880Z,19.33
2022-12-19T00:11:30.116Z,16.50
2022-12-19T00:13:57.127Z,17.33
2022-12-19T00:16:26.217Z,13.73
2022-12-19T00:18:55.460Z,13.85
2022-12-19T00:21:25.374Z,16.17
2022-12-19T00:23:52.740Z,13.82
2022-12-19T00:26:33.984Z,15.90
2022-12-19T00:29:04.246Z,11.02
2022-12-19T00:31:34.055Z,18.65
2022-12-19T00:34:01.478Z,16.30
2022-12-19T00:36:31.377Z,16.38
2022-12-19T00:39:01.857Z,14.25
2022-12-19T00:41:36.242Z,17.02
2022-12-19T00:44:07.181Z,17.23
2022-12-19T00:46:35.429Z,18.65
2022-12-19T00:49:03.741Z,15.13
2022-12-19T00:51:34.451Z,15.15
2022-12-19T00:54:02.081Z,14.52
2022-12-19T00:56:31.937Z,18.00
2022-12-19T00:59:02.675Z,17.70
2022-12-19T01:01:37.924Z,15.93
2022-12-19T01:06:53.777Z,17.70
2022-12-19T01:09:21.829Z,15.45
2022-12-19T01:12:07.162Z,16.25
2022-12-19T01:14:33.856Z,18.88
2022-12-19T01:17:00.658Z,17.10
2022-12-19T01:19:27.968Z,17.90
2022-12-19T01:21:54.770Z,18.60
2022-12-19T01:24:21.761Z,17.30
2022-12-19T01:26:48.486Z,17.45
2022-12-19T01:29:15.247Z,17.30
2022-12-19T01:31:42.101Z,15.73
2022-12-19T01:34:08.852Z,19.58
2022-12-19T01:36:39.648Z,16.42
2022-12-19T01:39:08.022Z,12.63
2022-12-19T01:41:35.429Z,22.38
2022-12-19T01:44:08.137Z,16.67
2022-12-19T01:46:47.783Z,17.02
2022-12-19T01:49:30.352Z,18.27
2022-12-19T01:52:01.260Z,16.42
2022-12-19T01:54:39.060Z,16.38
2022-12-19T01:57:10.594Z,15.55
2022-12-19T01:59:52.970Z,15.05
2022-12-19T02:02:25.523Z,23.75
2022-12-19T02:04:52.365Z,28.52
2022-12-19T02:07:21.530Z,55.28
2022-12-19T02:09:56.514Z,48.50
2022-12-19T02:12:30.359Z,33.45
2022-12-19T02:15:02.832Z,29.77
2022-12-19T02:18:01.296Z,27.27
2022-12-19T02:20:30.992Z,88.32
2022-12-19T02:23:00.678Z,49.25
2022-12-19T02:25:46.243Z,56.58
2022-12-19T02:28:34.007Z,59.40
2022-12-19T02:31:19.441Z,44.13
2022-12-19T02:34:16.428Z,40.78
2022-12-19T02:37:18.445Z,45.35
2022-12-19T02:40:07.344Z,21.30
2022-12-19T02:42:39.267Z,18.13
2022-12-19T02:45:10.057Z,18.77
2022-12-19T02:47:38.443Z,18.98
2022-12-19T02:50:07.496Z,16.25
2022-12-19T02:52:34.299Z,21.33
2022-12-19T02:55:06.664Z,16.40
2022-12-19T02:57:39.385Z,16.58
2022-12-19T03:00:10.194Z,17.50
2022-12-19T03:03:00.678Z,17.40
2022-12-19T03:05:34.044Z,17.05
2022-12-19T03:08:14.826Z,17.15
2022-12-19T03:10:53.526Z,15.93
2022-12-19T03:13:29.578Z,17.35
2022-12-19T03:15:58.738Z,15.77
2022-12-19T03:18:26.193Z,18.90
2022-12-19T03:20:57.853Z,16.33
2022-12-19T03:25:57.802Z,16.52
2022-12-19T03:28:53.099Z,16.48
2022-12-19T03:31:24.706Z,19.58
2022-12-19T03:36:27.418Z,16.67
2022-12-19T03:38:56.260Z,18.77
2022-12-19T03:41:43.634Z,19.73
2022-12-19T03:44:14.000Z,18.20
2022-12-19T03:46:47.350Z,18.20
2022-12-19T03:49:14.416Z,18.10
2022-12-19T03:51:59.511Z,18.20
2022-12-19T03:54:40.148Z,17.95
2022-12-19T03:57:34.248Z,17.58
2022-12-19T04:00:14.395Z,17.33
2022-12-19T04:02:46.467Z,16.55
2022-12-19T04:05:19.465Z,17.10
2022-12-19T04:07:47.988Z,18.20
2022-12-19T04:10:19.326Z,19.42
2022-12-19T04:12:52.653Z,18.23
2022-12-19T04:15:29.498Z,17.52
2022-12-19T04:17:59.199Z,21.33
2022-12-19T04:20:27.514Z,17.95
2022-12-19T04:23:23.226Z,17.42
2022-12-19T04:25:55.772Z,18.80
2022-12-19T04:28:50.941Z,17.58
2022-12-19T04:31:20.008Z,15.52
2022-12-19T04:33:46.864Z,21.65
2022-12-19T04:36:13.694Z,18.67
2022-12-19T04:38:40.823Z,19.90
2022-12-19T04:41:07.896Z,18.10
2022-12-19T04:43:34.760Z,18.58
2022-12-19T04:46:01.925Z,16.90
2022-12-19T04:48:28.674Z,13.13
2022-12-19T04:50:56.306Z,16.63
2022-12-19T04:53:23.153Z,17.00
2022-12-19T04:55:49.913Z,17.83
2022-12-19T04:58:21.700Z,16.48
2022-12-19T05:00:48.929Z,16.25
2022-12-19T05:03:15.883Z,17.63
2022-12-19T05:05:42.651Z,13.30
2022-12-19T05:08:10.134Z,14.48
2022-12-19T05:10:37.654Z,17.50
2022-12-19T05:13:04.451Z,15.85
2022-12-19T05:15:32.032Z,16.90
2022-12-19T05:17:58.843Z,16.58
2022-12-19T05:20:25.584Z,17.15
2022-12-19T05:22:52.368Z,17.30
2022-12-19T05:25:19.101Z,16.50
2022-12-19T05:27:45.871Z,18.15
2022-12-19T05:30:12.969Z,14.40
2022-12-19T05:32:39.705Z,16.08
2022-12-19T05:35:06.854Z,18.52
2022-12-19T05:37:35.224Z,15.77
2022-12-19T05:40:02.202Z,15.35
2022-12-19T05:42:30.507Z,16.60
2022-12-19T05:44:57.883Z,17.10
2022-12-19T05:47:25.172Z,17.38
2022-12-19T05:49:51.901Z,19.02
2022-12-19T05:52:18.587Z,16.23
2022-12-19T05:54:45.353Z,15.43
2022-12-19T05:57:12.123Z,17.77
2022-12-19T05:59:38.828Z,14.93
2022-12-19T06:02:05.687Z,16.25
2022-12-19T06:04:32.667Z,16.55
2022-12-19T06:06:59.450Z,16.02
2022-12-19T06:09:26.393Z,18.63
2022-12-19T06:11:53.175Z,16.27
2022-12-19T06:14:20.292Z,18.73
2022-12-19T06:16:47.157Z,15.73
2022-12-19T06:19:17.214Z,17.40
2022-12-19T06:21:48.143Z,16.58
2022-12-19T06:24:15.670Z,16.58
2022-12-19T06:26:42.606Z,14.27
2022-12-19T06:29:09.861Z,17.77
2022-12-19T06:31:36.663Z,16.45
2022-12-19T06:34:03.563Z,18.77
2022-12-19T06:36:31.281Z,18.70
2022-12-19T06:38:58.989Z,15.27
2022-12-19T06:41:44.924Z,12.75
2022-12-19T06:44:14.073Z,14.18
2022-12-19T06:46:41.890Z,14.60
2022-12-19T06:49:10.255Z,17.90
2022-12-19T06:51:37.337Z,12.68
2022-12-19T06:54:04.522Z,14.90
2022-12-19T06:56:40.092Z,16.48
2022-12-19T06:59:08.081Z,16.65
2022-12-19T07:01:53.492Z,15.27
2022-12-19T07:04:34.247Z,18.05
2022-12-19T07:07:01.340Z,17.10
2022-12-19T07:09:29.560Z,17.05
2022-12-19T07:11:56.486Z,18.25
2022-12-19T07:14:23.261Z,17.30
2022-12-19T07:16:52.051Z,17.50
2022-12-19T07:19:20.137Z,15.38
2022-12-19T07:21:47.249Z,15.00
2022-12-19T07:24:15.173Z,14.50
2022-12-19T07:26:43.514Z,21.05
2022-12-19T07:29:11.722Z,19.50
2022-12-19T07:31:38.748Z,18.05
2022-12-19T07:34:05.621Z,16.05
2022-12-19T07:36:32.553Z,17.88
2022-12-19T07:38:59.471Z,15.18
2022-12-19T07:41:26.220Z,15.75
2022-12-19T07:43:52.946Z,19.45
2022-12-19T07:46:20.031Z,17.35
2022-12-19T07:48:46.780Z,17.52
2022-12-19T07:51:13.487Z,19.73
2022-12-19T07:53:40.356Z,19.25
2022-12-19T07:56:07.614Z,19.52
2022-12-19T07:58:34.668Z,18.10
2022-12-19T08:01:02.504Z,18.08
2022-12-19T08:03:33.415Z,20.77
2022-12-19T08:06:01.907Z,21.45
2022-12-19T08:08:30.445Z,17.75
2022-12-19T08:11:06.498Z,18.45
2022-12-19T08:13:39.644Z,17.98
2022-12-19T08:16:10.664Z,18.02
2022-12-19T08:18:37.600Z,17.45
2022-12-19T08:21:04.488Z,20.23
2022-12-19T08:23:31.385Z,19.92
2022-12-19T08:26:06.348Z,21.75
2022-12-19T08:28:34.460Z,21.38
2022-12-19T08:31:10.322Z,19.17
2022-12-19T08:33:37.103Z,17.95
2022-12-19T08:36:05.918Z,20.17
2022-12-19T08:38:33.014Z,18.95
2022-12-19T08:40:59.974Z,17.23
2022-12-19T08:43:27.708Z,18.48
2022-12-19T08:45:54.620Z,20.42
2022-12-19T08:48:21.374Z,18.58
2022-12-19T08:50:55.261Z,17.35
2022-12-19T08:53:26.260Z,20.77
2022-12-19T08:56:02.212Z,17.27
2022-12-19T08:58:30.592Z,17.27
2022-12-19T09:01:05.517Z,20.48
2022-12-19T09:03:38.258Z,20.17
2022-12-19T09:06:20.540Z,19.10
2022-12-19T09:08:47.469Z,18.55
2022-12-19T09:11:17.057Z,11.88
2022-12-19T09:13:45.032Z,18.23
2022-12-19T09:16:21.196Z,17.27
2022-12-19T09:18:50.508Z,17.42
2022-12-19T09:21:19.074Z,17.55
2022-12-19T09:23:55.151Z,18.88
2022-12-19T09:26:23.772Z,19.05
2022-12-19T09:28:51.906Z,15.65
2022-12-19T09:31:21.937Z,18.40
2022-12-19T09:33:49.204Z,16.75
2022-12-19T09:36:19.632Z,16.50
2022-12-19T09:38:47.365Z,16.75
2022-12-19T09:41:14.034Z,20.77
2022-12-19T09:43:54.577Z,18.40
2022-12-19T09:46:41.877Z,19.98
2022-12-19T09:49:13.709Z,17.42
2022-12-19T09:51:58.606Z,20.23
2022-12-19T09:54:41.597Z,21.15
2022-12-19T09:57:18.011Z,20.88
2022-12-19T09:59:50.728Z,20.05
2022-12-19T10:02:31.846Z,20.52
2022-12-19T10:05:46.502Z,18.65
2022-12-19T10:08:10.704Z,18.40
2022-12-19T10:12:38.372Z,18.33
2022-12-19T10:13:58.000Z,17.00
2022-12-19T10:16:24.864Z,19.20
2022-12-19T10:18:57.125Z,19.17
2022-12-19T10:22:18.095Z,19.63
2022-12-19T10:25:08.808Z,18.90
2022-12-19T10:27:58.605Z,16.35
2022-12-19T10:30:31.848Z,18.08
2022-12-19T10:32:59.830Z,21.42
2022-12-19T10:35:42.614Z,19.45
2022-12-19T10:38:31.099Z,18.95
2022-12-19T10:41:10.839Z,19.27
2022-12-19T10:43:48.751Z,20.15
2022-12-19T10:46:41.998Z,18.65
2022-12-19T10:49:14.850Z,21.17
2022-12-19T10:51:42.587Z,23.20
2022-12-19T10:54:09.704Z,17.55
2022-12-19T10:56:37.953Z,17.25
2022-12-19T10:59:16.411Z,18.08
2022-12-19T11:01:44.225Z,18.52
2022-12-19T11:04:33.179Z,23.35
2022-12-19T11:07:02.806Z,18.92
2022-12-19T11:09:38.401Z,22.65
2022-12-19T11:15:18.527Z,17.08
2022-12-19T11:19:47.122Z,20.40
2022-12-19T11:25:51.172Z,20.75
2022-12-19T11:29:30.271Z,22.08
2022-12-19T11:29:44.966Z,20.23
2022-12-19T11:30:41.838Z,20.83
2022-12-19T11:31:51.171Z,22.60
2022-12-19T11:33:18.140Z,20.65
2022-12-19T11:35:53.530Z,20.38
2022-12-19T11:38:53.026Z,19.35
2022-12-19T11:41:52.015Z,20.25
2022-12-19T11:44:37.310Z,19.58
2022-12-19T11:47:41.622Z,20.77
2022-12-19T11:50:17.623Z,22.85
2022-12-19T11:53:18.570Z,21.65
2022-12-19T11:55:45.925Z,20.98
2022-12-19T11:58:29.893Z,19.77
2022-12-19T12:01:15.399Z,21.45
2022-12-19T12:04:02.015Z,23.50
2022-12-19T12:06:35.350Z,22.80
2022-12-19T12:10:46.203Z,19.63
2022-12-19T12:18:50.077Z,21.95
2022-12-19T12:25:51.934Z,20.60
2022-12-19T12:31:07.207Z,19.73
2022-12-19T12:31:21.384Z,22.27
2022-12-19T12:31:43.405Z,19.55
2022-12-19T12:31:50.060Z,21.35
2022-12-19T12:32:03.742Z,20.15
2022-12-19T12:35:54.202Z,22.65
2022-12-19T12:39:34.103Z,22.42
2022-12-19T12:42:22.516Z,21.80
2022-12-19T12:44:52.942Z,22.27
2022-12-19T12:47:27.613Z,21.60
2022-12-19T12:50:04.270Z,24.65
2022-12-19T12:52:31.504Z,20.98
2022-12-19T12:54:58.837Z,21.95
2022-12-19T12:57:28.901Z,21.45
2022-12-19T13:00:17.876Z,20.88
2022-12-19T13:03:12.907Z,22.67
2022-12-19T13:05:54.149Z,18.80
2022-12-19T13:08:47.269Z,23.83
2022-12-19T13:11:38.357Z,20.23
2022-12-19T13:14:26.040Z,18.33
2022-12-19T13:16:53.943Z,20.20
2022-12-19T13:19:29.227Z,21.55
2022-12-19T13:22:05.047Z,21.63
2022-12-19T13:24:38.777Z,21.15
2022-12-19T13:27:25.433Z,22.40
2022-12-19T13:29:56.760Z,20.85
2022-12-19T13:32:23.941Z,20.60
2022-12-19T13:34:57.513Z,19.83
2022-12-19T13:39:49.601Z,20.00
2022-12-19T13:40:44.723Z,22.42
2022-12-19T13:43:29.655Z,21.20
2022-12-19T13:46:02.683Z,20.30
2022-12-19T13:48:40.418Z,20.27
2022-12-19T13:51:09.553Z,20.35
2022-12-19T13:53:37.277Z,20.42
2022-12-19T13:56:12.843Z,18.77
2022-12-19T13:58:49.698Z,23.92
2022-12-19T14:01:27.606Z,21.50
2022-12-19T14:04:08.021Z,23.52
2022-12-19T14:06:47.562Z,20.80
2022-12-19T14:11:27.694Z,19.70
2022-12-19T14:13:51.990Z,22.83
2022-12-19T14:15:40.086Z,20.67
2022-12-19T14:18:42.292Z,21.90
2022-12-19T14:22:04.314Z,24.77
2022-12-19T14:24:19.948Z,20.75
2022-12-19T14:28:20.447Z,22.98
2022-12-19T14:30:28.625Z,22.63
2022-12-19T14:33:46.716Z,21.52
2022-12-19T14:36:06.157Z,20.50
2022-12-19T14:39:27.007Z,19.67
2022-12-19T14:42:01.003Z,22.15
2022-12-19T14:53:51.900Z,20.23
2022-12-19T14:53:52.031Z,22.52
2022-12-19T14:54:20.627Z,22.85
2022-12-19T14:54:50.610Z,17.02
2022-12-19T14:56:57.624Z,22.38
2022-12-19T14:59:05.960Z,23.08
2022-12-19T15:01:35.149Z,23.17
2022-12-19T15:04:49.312Z,21.10
2022-12-19T15:07:07.332Z,22.83
2022-12-19T15:10:58.089Z,20.77
2022-12-19T15:13:47.379Z,23.88
2022-12-19T15:16:06.518Z,22.92
2022-12-19T15:18:33.361Z,23.55
2022-12-19T15:21:02.990Z,21.33
2022-12-19T15:23:31.124Z,21.75
2022-12-19T15:26:05.303Z,24.85
2022-12-19T15:28:43.416Z,24.92
2022-12-19T15:31:27.354Z,22.48
2022-12-19T15:36:41.560Z,21.15
2022-12-19T15:39:08.317Z,25.88
2022-12-19T15:41:35.728Z,22.70
2022-12-19T15:44:13.606Z,23.20
2022-12-19T15:46:48.093Z,22.33
2022-12-19T15:49:20.163Z,22.45
2022-12-19T15:51:47.186Z,24.40
2022-12-19T15:57:01.286Z,21.10
2022-12-19T15:59:38.858Z,21.90
2022-12-19T16:02:22.340Z,22.77
2022-12-19T16:04:50.985Z,22.83
2022-12-19T16:07:23.446Z,25.30
2022-12-19T16:09:50.279Z,22.42
2022-12-19T16:12:20.663Z,19.67
2022-12-19T16:14:53.591Z,22.65
2022-12-19T16:17:22.614Z,23.77
2022-12-19T16:19:50.465Z,24.38
2022-12-19T16:22:20.433Z,20.48
2022-12-19T16:24:47.417Z,22.38
2022-12-19T16:27:34.927Z,19.65
2022-12-19T16:30:29.475Z,20.52
2022-12-19T16:32:56.612Z,19.30
2022-12-19T16:36:02.377Z,20.65
2022-12-19T16:38:15.683Z,18.40
2022-12-19T16:40:42.942Z,21.55
2022-12-19T16:43:28.565Z,22.42
2022-12-19T16:46:01.147Z,18.33
2022-12-19T16:48:30.139Z,20.33
2022-12-19T16:50:58.287Z,19.02
2022-12-19T16:53:25.203Z,21.92
2022-12-19T16:55:52.288Z,21.15
2022-12-19T16:58:24.516Z,18.63
2022-12-19T17:00:55.180Z,19.90
2022-12-19T17:03:32.813Z,20.50
2022-12-19T17:05:59.729Z,23.20
2022-12-19T17:08:26.520Z,17.23
2022-12-19T17:10:54.463Z,20.95
2022-12-19T17:13:22.621Z,19.08
2022-12-19T17:15:56.253Z,19.55
2022-12-19T17:18:33.687Z,19.45
2022-12-19T17:21:00.704Z,19.10
2022-12-19T17:23:30.518Z,20.77
2022-12-19T17:25:58.156Z,21.08
2022-12-19T17:28:25.310Z,20.20
2022-12-19T17:30:54.978Z,18.55
2022-12-19T17:33:24.471Z,19.05
2022-12-19T17:35:53.624Z,19.33
2022-12-19T17:38:20.327Z,17.73
2022-12-19T17:40:47.117Z,17.90
2022-12-19T17:43:13.893Z,19.80
2022-12-19T17:45:41.453Z,18.20
2022-12-19T17:48:21.089Z,18.15
2022-12-19T17:50:48.024Z,18.25
2022-12-19T17:53:15.366Z,19.70
2022-12-19T17:55:42.487Z,19.10
2022-12-19T17:58:10.825Z,19.25
2022-12-19T18:00:39.710Z,16.88
2022-12-19T18:03:25.255Z,20.30
2022-12-19T18:05:54.808Z,18.70
2022-12-19T18:08:28.707Z,17.48
2022-12-19T18:10:59.788Z,17.35
2022-12-19T18:13:28.343Z,19.73
2022-12-19T18:16:01.797Z,17.60
2022-12-19T18:18:33.642Z,21.20
2022-12-19T18:23:28.539Z,16.45
2022-12-19T18:26:01.091Z,19.77
2022-12-19T18:28:29.186Z,18.17
2022-12-19T18:31:11.310Z,18.88
2022-12-19T18:33:41.074Z,15.40
2022-12-19T18:36:15.375Z,19.85
2022-12-19T18:38:42.162Z,20.45
2022-12-19T18:41:11.613Z,18.40
2022-12-19T18:43:38.478Z,17.42
2022-12-19T18:46:06.218Z,20.60
2022-12-19T18:48:37.035Z,20.55
2022-12-19T18:51:05.501Z,18.05
2022-12-19T18:53:35.723Z,17.52
2022-12-19T18:56:05.731Z,18.98
2022-12-19T18:58:33.772Z,16.77
2022-12-19T19:01:03.509Z,17.60
2022-12-19T19:03:39.567Z,22.17
2022-12-19T19:06:18.197Z,17.73
2022-12-19T19:08:45.024Z,15.88
2022-12-19T19:11:12.034Z,19.50
2022-12-19T19:13:38.907Z,17.50
2022-12-19T19:16:17.491Z,18.83
2022-12-19T19:18:45.469Z,16.63
2022-12-19T19:21:14.773Z,17.35
2022-12-19T19:24:08.087Z,20.15
2022-12-19T19:26:35.054Z,22.00
2022-12-19T19:29:03.721Z,17.63
2022-12-19T19:31:34.403Z,16.17
2022-12-19T19:34:09.324Z,18.15
2022-12-19T19:36:38.294Z,18.10
2022-12-19T19:39:05.364Z,17.35
2022-12-19T19:41:34.260Z,16.15
2022-12-19T19:44:01.376Z,19.00
2022-12-19T19:46:30.944Z,17.42
2022-12-19T19:48:58.504Z,16.65
2022-12-19T19:51:25.299Z,15.85
2022-12-19T19:53:52.545Z,16.48
2022-12-19T19:56:19.544Z,16.80
2022-12-19T19:58:46.338Z,17.13
2022-12-19T20:01:14.110Z,17.50
2022-12-19T20:03:45.201Z,16.30
2022-12-19T20:06:12.594Z,15.10
2022-12-19T20:08:40.699Z,16.38
2022-12-19T20:11:09.313Z,13.05
2022-12-19T20:13:36.411Z,16.20
2022-12-19T20:16:09.763Z,17.98
2022-12-19T20:18:37.870Z,18.80
2022-12-19T20:21:13.228Z,16.38
2022-12-19T20:23:42.017Z,14.40
2022-12-19T20:26:09.656Z,15.07
2022-12-19T20:28:45.930Z,16.20
2022-12-19T20:31:14.982Z,16.20
2022-12-19T20:33:41.833Z,13.02
2022-12-19T20:36:11.290Z,14.15
2022-12-19T20:38:38.823Z,16.48
2022-12-19T20:41:05.886Z,16.08
2022-12-19T20:43:33.751Z,17.00
2022-12-19T20:46:02.236Z,12.82
2022-12-19T20:48:29.094Z,18.38
2022-12-19T20:50:57.239Z,16.13
2022-12-19T20:53:24.080Z,18.58
2022-12-19T20:55:58.070Z,16.63
2022-12-19T20:58:29.666Z,16.15
2022-12-19T21:01:16.574Z,16.92
2022-12-19T21:03:45.104Z,17.58
2022-12-19T21:06:13.654Z,16.90
2022-12-19T21:08:41.022Z,16.83
2022-12-19T21:11:09.340Z,18.80
2022-12-19T21:13:37.301Z,17.55
2022-12-19T21:16:08.520Z,14.82
2022-12-19T21:18:40.470Z,17.73
2022-12-19T21:21:11.663Z,16.40
2022-12-19T21:23:38.463Z,18.60
2022-12-19T21:26:05.404Z,15.95
2022-12-19T21:28:33.247Z,17.27
2022-12-19T21:31:02.871Z,14.57
2022-12-19T21:33:30.280Z,17.95
2022-12-19T21:35:57.231Z,16.17
2022-12-19T21:38:24.747Z,14.00
2022-12-19T21:40:51.544Z,16.67
2022-12-19T21:43:18.289Z,17.33
2022-12-19T21:45:45.047Z,16.80
2022-12-19T21:48:11.801Z,16.90
2022-12-19T21:50:38.599Z,14.10
2022-12-19T21:53:05.362Z,16.13
2022-12-19T21:55:32.157Z,17.30
2022-12-19T21:57:59.500Z,16.10
2022-12-19T22:00:26.405Z,18.58
2022-12-19T22:03:13.275Z,17.75
2022-12-19T22:05:40.072Z,17.83
2022-12-19T22:08:06.802Z,20.75
2022-12-19T22:10:33.822Z,19.35
2022-12-19T22:13:00.736Z,17.80
2022-12-19T22:15:27.481Z,17.65
2022-12-19T22:17:54.366Z,17.92
2022-12-19T22:20:21.110Z,18.00
2022-12-19T22:22:47.880Z,19.05
2022-12-19T22:25:14.596Z,18.02
2022-12-19T22:27:41.333Z,17.52
2022-12-19T22:30:11.169Z,16.75
2022-12-19T22:32:38.302Z,16.17
2022-12-19T22:35:05.557Z,18.55
2022-12-19T22:37:32.368Z,17.25
2022-12-19T22:40:00.301Z,19.88
2022-12-19T22:42:30.179Z,19.65
2022-12-19T22:44:56.983Z,19.42
2022-12-19T22:47:23.776Z,17.30
2022-12-19T22:49:52.412Z,18.33
2022-12-19T22:52:19.341Z,17.65
2022-12-19T22:54:46.340Z,18.83
2022-12-19T22:57:13.156Z,18.20
2022-12-19T22:59:40.499Z,16.83
2022-12-19T23:02:07.428Z,16.65
2022-12-19T23:04:36.089Z,17.60
2022-12-19T23:07:02.990Z,17.77
2022-12-19T23:09:29.736Z,17.27
2022-12-19T23:11:56.454Z,15.18
2022-12-19T23:14:23.210Z,16.05
2022-12-19T23:16:50.070Z,17.65
2022-12-19T23:19:17.380Z,17.05
2022-12-19T23:21:44.253Z,18.20
2022-12-19T23:24:11.742Z,18.38
2022-12-19T23:26:39.437Z,19.38
2022-12-19T23:29:11.774Z,17.60
2022-12-19T23:31:44.025Z,15.60
2022-12-19T23:34:11.654Z,15.57
2022-12-19T23:37:09.526Z,16.77
2022-12-19T23:39:25.532Z,15.65
2022-12-19T23:41:52.344Z,16.40
2022-12-19T23:44:19.326Z,16.85
2022-12-19T23:46:46.076Z,16.02
2022-12-19T23:49:13.325Z,15.93
2022-12-19T23:51:40.145Z,15.82
2022-12-19T23:54:08.727Z,18.35
2022-12-19T23:56:35.529Z,17.05
2022-12-19T23:59:02.735Z,17.58
